sensor_id;sensor_type;location;lat;lon;timestamp;P1;durP1;ratioP1;P2;durP2;ratioP2
42682;SDS011;28293;50.930;3.464;2023-08-07T00:00:39;11.00;;;5.07;;
42682;SDS011;28293;50.930;3.464;2023-08-07T00:03:05;9.63;;;5.07;;
42682;SDS011;28293;50.930;3.464;2023-08-07T00:05:30;11.95;;;5.03;;
42682;SDS011;28293;50.930;3.464;2023-08-07T00:07:56;12.48;;;4.65;;
42682;SDS011;28293;50.930;3.464;2023-08-07T00:10:22;9.80;;;4.90;;
42682;SDS011;28293;50.930;3.464;2023-08-07T00:12:47;11.27;;;4.75;;
42682;SDS011;28293;50.930;3.464;2023-08-07T00:15:13;10.55;;;4.45;;
42682;SDS011;28293;50.930;3.464;2023-08-07T00:17:39;8.45;;;4.68;;
42682;SDS011;28293;50.930;3.464;2023-08-07T00:20:05;9.05;;;4.45;;
42682;SDS011;28293;50.930;3.464;2023-08-07T00:22:31;12.88;;;5.10;;
42682;SDS011;28293;50.930;3.464;2023-08-07T00:24:57;9.18;;;4.43;;
42682;SDS011;28293;50.930;3.464;2023-08-07T00:27:22;10.15;;;4.32;;
42682;SDS011;28293;50.930;3.464;2023-08-07T00:29:48;11.73;;;5.03;;
42682;SDS011;28293;50.930;3.464;2023-08-07T00:32:13;11.55;;;5.32;;
42682;SDS011;28293;50.930;3.464;2023-08-07T00:34:39;10.13;;;4.85;;
42682;SDS011;28293;50.930;3.464;2023-08-07T00:37:05;13.20;;;5.55;;
42682;SDS011;28293;50.930;3.464;2023-08-07T00:39:31;9.65;;;6.00;;
42682;SDS011;28293;50.930;3.464;2023-08-07T00:41:56;12.55;;;5.72;;
42682;SDS011;28293;50.930;3.464;2023-08-07T00:44:22;10.38;;;5.60;;
42682;SDS011;28293;50.930;3.464;2023-08-07T00:46:51;15.57;;;5.80;;
42682;SDS011;28293;50.930;3.464;2023-08-07T00:49:16;14.02;;;6.53;;
42682;SDS011;28293;50.930;3.464;2023-08-07T00:51:44;10.48;;;5.60;;
42682;SDS011;28293;50.930;3.464;2023-08-07T00:54:10;12.07;;;6.63;;
42682;SDS011;28293;50.930;3.464;2023-08-07T00:56:39;14.88;;;7.22;;
42682;SDS011;28293;50.930;3.464;2023-08-07T00:59:05;13.95;;;7.10;;
42682;SDS011;28293;50.930;3.464;2023-08-07T01:01:31;11.90;;;7.35;;
42682;SDS011;28293;50.930;3.464;2023-08-07T01:03:57;13.43;;;7.75;;
42682;SDS011;28293;50.930;3.464;2023-08-07T01:06:23;12.93;;;7.88;;
42682;SDS011;28293;50.930;3.464;2023-08-07T01:08:49;15.18;;;10.30;;
42682;SDS011;28293;50.930;3.464;2023-08-07T01:19:25;21.08;;;16.25;;
42682;SDS011;28293;50.930;3.464;2023-08-07T01:22:05;23.25;;;19.90;;
42682;SDS011;28293;50.930;3.464;2023-08-07T01:24:41;21.38;;;18.65;;
42682;SDS011;28293;50.930;3.464;2023-08-07T01:30:07;16.48;;;14.77;;
42682;SDS011;28293;50.930;3.464;2023-08-07T01:35:33;15.23;;;10.38;;
42682;SDS011;28293;50.930;3.464;2023-08-07T01:38:02;14.38;;;9.30;;
42682;SDS011;28293;50.930;3.464;2023-08-07T01:40:30;14.05;;;8.80;;
42682;SDS011;28293;50.930;3.464;2023-08-07T01:42:56;16.08;;;6.97;;
42682;SDS011;28293;50.930;3.464;2023-08-07T01:45:26;15.40;;;7.15;;
42682;SDS011;28293;50.930;3.464;2023-08-07T01:47:53;12.60;;;6.25;;
42682;SDS011;28293;50.930;3.464;2023-08-07T01:50:20;10.93;;;6.13;;
42682;SDS011;28293;50.930;3.464;2023-08-07T01:52:46;10.13;;;6.00;;
42682;SDS011;28293;50.930;3.464;2023-08-07T01:55:15;11.90;;;6.15;;
42682;SDS011;28293;50.930;3.464;2023-08-07T01:57:41;12.68;;;6.13;;
42682;SDS011;28293;50.930;3.464;2023-08-07T02:00:07;13.00;;;6.18;;
42682;SDS011;28293;50.930;3.464;2023-08-07T02:02:34;16.60;;;6.93;;
42682;SDS011;28293;50.930;3.464;2023-08-07T02:05:00;14.52;;;6.70;;
42682;SDS011;28293;50.930;3.464;2023-08-07T02:07:27;10.15;;;5.30;;
42682;SDS011;28293;50.930;3.464;2023-08-07T02:09:52;14.93;;;6.75;;
42682;SDS011;28293;50.930;3.464;2023-08-07T02:12:18;11.40;;;6.60;;
42682;SDS011;28293;50.930;3.464;2023-08-07T02:14:44;11.52;;;6.55;;
42682;SDS011;28293;50.930;3.464;2023-08-07T02:17:09;16.58;;;7.07;;
42682;SDS011;28293;50.930;3.464;2023-08-07T02:19:35;12.93;;;6.50;;
42682;SDS011;28293;50.930;3.464;2023-08-07T02:22:01;9.70;;;5.65;;
42682;SDS011;28293;50.930;3.464;2023-08-07T02:24:27;11.60;;;6.38;;
42682;SDS011;28293;50.930;3.464;2023-08-07T02:26:52;12.70;;;6.28;;
42682;SDS011;28293;50.930;3.464;2023-08-07T02:29:18;13.60;;;5.90;;
42682;SDS011;28293;50.930;3.464;2023-08-07T02:31:44;12.38;;;5.97;;
42682;SDS011;28293;50.930;3.464;2023-08-07T02:34:09;11.10;;;6.28;;
42682;SDS011;28293;50.930;3.464;2023-08-07T02:36:35;10.30;;;6.20;;
42682;SDS011;28293;50.930;3.464;2023-08-07T02:39:01;11.25;;;6.30;;
42682;SDS011;28293;50.930;3.464;2023-08-07T02:41:27;9.75;;;5.35;;
42682;SDS011;28293;50.930;3.464;2023-08-07T02:43:53;11.95;;;5.75;;
42682;SDS011;28293;50.930;3.464;2023-08-07T02:46:18;12.15;;;6.53;;
42682;SDS011;28293;50.930;3.464;2023-08-07T02:48:44;12.10;;;6.05;;
42682;SDS011;28293;50.930;3.464;2023-08-07T02:51:10;10.93;;;6.38;;
42682;SDS011;28293;50.930;3.464;2023-08-07T02:53:35;15.52;;;7.80;;
42682;SDS011;28293;50.930;3.464;2023-08-07T02:56:01;13.23;;;7.75;;
42682;SDS011;28293;50.930;3.464;2023-08-07T02:58:27;11.95;;;7.35;;
42682;SDS011;28293;50.930;3.464;2023-08-07T03:00:52;11.80;;;7.43;;
42682;SDS011;28293;50.930;3.464;2023-08-07T03:03:18;12.50;;;6.53;;
42682;SDS011;28293;50.930;3.464;2023-08-07T03:05:47;13.48;;;7.35;;
42682;SDS011;28293;50.930;3.464;2023-08-07T03:08:16;14.25;;;8.10;;
42682;SDS011;28293;50.930;3.464;2023-08-07T03:10:49;13.73;;;7.15;;
42682;SDS011;28293;50.930;3.464;2023-08-07T03:13:18;14.82;;;6.05;;
42682;SDS011;28293;50.930;3.464;2023-08-07T03:15:44;13.45;;;6.93;;
42682;SDS011;28293;50.930;3.464;2023-08-07T03:18:10;10.88;;;6.03;;
42682;SDS011;28293;50.930;3.464;2023-08-07T03:20:36;13.98;;;5.90;;
42682;SDS011;28293;50.930;3.464;2023-08-07T03:23:02;10.45;;;6.18;;
42682;SDS011;28293;50.930;3.464;2023-08-07T03:25:28;11.10;;;5.10;;
42682;SDS011;28293;50.930;3.464;2023-08-07T03:27:54;9.77;;;5.20;;
42682;SDS011;28293;50.930;3.464;2023-08-07T03:30:19;11.30;;;5.50;;
42682;SDS011;28293;50.930;3.464;2023-08-07T03:32:45;9.27;;;5.20;;
42682;SDS011;28293;50.930;3.464;2023-08-07T03:35:11;11.18;;;5.40;;
42682;SDS011;28293;50.930;3.464;2023-08-07T03:37:36;13.32;;;6.10;;
42682;SDS011;28293;50.930;3.464;2023-08-07T03:40:02;13.35;;;5.75;;
42682;SDS011;28293;50.930;3.464;2023-08-07T03:42:28;11.15;;;6.15;;
42682;SDS011;28293;50.930;3.464;2023-08-07T03:44:54;12.32;;;5.75;;
42682;SDS011;28293;50.930;3.464;2023-08-07T03:47:19;11.70;;;5.70;;
42682;SDS011;28293;50.930;3.464;2023-08-07T03:49:45;11.40;;;6.07;;
42682;SDS011;28293;50.930;3.464;2023-08-07T03:52:11;12.02;;;5.90;;
42682;SDS011;28293;50.930;3.464;2023-08-07T03:54:37;11.95;;;5.85;;
42682;SDS011;28293;50.930;3.464;2023-08-07T03:57:02;12.02;;;6.15;;
42682;SDS011;28293;50.930;3.464;2023-08-07T03:59:28;13.35;;;6.97;;
42682;SDS011;28293;50.930;3.464;2023-08-07T04:01:54;11.77;;;6.18;;
42682;SDS011;28293;50.930;3.464;2023-08-07T04:04:20;13.60;;;6.80;;
42682;SDS011;28293;50.930;3.464;2023-08-07T04:06:45;13.48;;;6.88;;
42682;SDS011;28293;50.930;3.464;2023-08-07T04:09:11;19.13;;;6.93;;
42682;SDS011;28293;50.930;3.464;2023-08-07T04:11:37;14.55;;;7.13;;
42682;SDS011;28293;50.930;3.464;2023-08-07T04:14:02;14.63;;;7.32;;
42682;SDS011;28293;50.930;3.464;2023-08-07T04:16:29;11.02;;;6.57;;
42682;SDS011;28293;50.930;3.464;2023-08-07T04:18:56;14.63;;;6.90;;
42682;SDS011;28293;50.930;3.464;2023-08-07T04:21:21;13.23;;;6.85;;
42682;SDS011;28293;50.930;3.464;2023-08-07T04:23:48;11.65;;;6.80;;
42682;SDS011;28293;50.930;3.464;2023-08-07T04:26:13;13.45;;;6.97;;
42682;SDS011;28293;50.930;3.464;2023-08-07T04:28:39;10.43;;;7.15;;
42682;SDS011;28293;50.930;3.464;2023-08-07T04:31:05;11.25;;;6.32;;
42682;SDS011;28293;50.930;3.464;2023-08-07T04:33:31;12.55;;;6.60;;
42682;SDS011;28293;50.930;3.464;2023-08-07T04:35:56;11.40;;;6.50;;
42682;SDS011;28293;50.930;3.464;2023-08-07T04:38:22;12.32;;;6.53;;
42682;SDS011;28293;50.930;3.464;2023-08-07T04:40:48;10.38;;;6.28;;
42682;SDS011;28293;50.930;3.464;2023-08-07T04:43:18;11.43;;;6.63;;
42682;SDS011;28293;50.930;3.464;2023-08-07T04:45:46;12.25;;;7.07;;
42682;SDS011;28293;50.930;3.464;2023-08-07T04:48:12;12.27;;;6.88;;
42682;SDS011;28293;50.930;3.464;2023-08-07T04:50:38;13.70;;;6.97;;
42682;SDS011;28293;50.930;3.464;2023-08-07T04:53:04;10.35;;;5.88;;
42682;SDS011;28293;50.930;3.464;2023-08-07T04:55:31;11.43;;;6.75;;
42682;SDS011;28293;50.930;3.464;2023-08-07T04:57:57;13.50;;;8.43;;
42682;SDS011;28293;50.930;3.464;2023-08-07T05:00:23;11.73;;;8.07;;
42682;SDS011;28293;50.930;3.464;2023-08-07T05:02:49;12.50;;;8.10;;
42682;SDS011;28293;50.930;3.464;2023-08-07T05:05:15;13.48;;;8.57;;
42682;SDS011;28293;50.930;3.464;2023-08-07T05:07:41;13.38;;;9.55;;
42682;SDS011;28293;50.930;3.464;2023-08-07T05:10:09;16.17;;;8.57;;
42682;SDS011;28293;50.930;3.464;2023-08-07T05:12:35;14.35;;;7.80;;
42682;SDS011;28293;50.930;3.464;2023-08-07T05:15:01;13.32;;;7.22;;
42682;SDS011;28293;50.930;3.464;2023-08-07T05:17:27;13.70;;;8.45;;
42682;SDS011;28293;50.930;3.464;2023-08-07T05:19:52;12.60;;;7.63;;
42682;SDS011;28293;50.930;3.464;2023-08-07T05:22:18;16.05;;;8.23;;
42682;SDS011;28293;50.930;3.464;2023-08-07T05:24:44;15.07;;;8.40;;
42682;SDS011;28293;50.930;3.464;2023-08-07T05:27:10;14.40;;;8.02;;
42682;SDS011;28293;50.930;3.464;2023-08-07T05:29:36;17.23;;;7.88;;
42682;SDS011;28293;50.930;3.464;2023-08-07T05:32:14;13.55;;;7.97;;
42682;SDS011;28293;50.930;3.464;2023-08-07T05:34:40;12.73;;;8.27;;
42682;SDS011;28293;50.930;3.464;2023-08-07T05:37:06;14.55;;;8.20;;
42682;SDS011;28293;50.930;3.464;2023-08-07T05:39:33;15.50;;;8.50;;
42682;SDS011;28293;50.930;3.464;2023-08-07T05:41:59;15.30;;;9.52;;
42682;SDS011;28293;50.930;3.464;2023-08-07T05:44:25;13.18;;;9.07;;
42682;SDS011;28293;50.930;3.464;2023-08-07T05:46:51;15.05;;;8.82;;
42682;SDS011;28293;50.930;3.464;2023-08-07T05:49:17;14.68;;;10.13;;
42682;SDS011;28293;50.930;3.464;2023-08-07T05:51:42;13.88;;;9.50;;
42682;SDS011;28293;50.930;3.464;2023-08-07T05:54:08;13.90;;;9.57;;
42682;SDS011;28293;50.930;3.464;2023-08-07T05:56:34;18.60;;;10.70;;
42682;SDS011;28293;50.930;3.464;2023-08-07T05:59:00;15.80;;;11.00;;
42682;SDS011;28293;50.930;3.464;2023-08-07T06:01:26;15.43;;;10.07;;
42682;SDS011;28293;50.930;3.464;2023-08-07T06:03:56;20.33;;;11.68;;
42682;SDS011;28293;50.930;3.464;2023-08-07T06:06:22;15.82;;;10.23;;
42682;SDS011;28293;50.930;3.464;2023-08-07T06:08:48;16.10;;;9.82;;
42682;SDS011;28293;50.930;3.464;2023-08-07T06:11:14;17.80;;;10.88;;
42682;SDS011;28293;50.930;3.464;2023-08-07T06:13:42;15.88;;;10.75;;
42682;SDS011;28293;50.930;3.464;2023-08-07T06:16:08;15.25;;;8.48;;
42682;SDS011;28293;50.930;3.464;2023-08-07T06:18:34;16.38;;;8.68;;
42682;SDS011;28293;50.930;3.464;2023-08-07T06:21:00;15.82;;;8.98;;
42682;SDS011;28293;50.930;3.464;2023-08-07T06:23:26;14.98;;;7.50;;
42682;SDS011;28293;50.930;3.464;2023-08-07T06:25:51;12.93;;;7.55;;
42682;SDS011;28293;50.930;3.464;2023-08-07T06:28:17;12.95;;;7.95;;
42682;SDS011;28293;50.930;3.464;2023-08-07T06:30:42;12.15;;;7.28;;
42682;SDS011;28293;50.930;3.464;2023-08-07T06:33:08;11.30;;;6.80;;
42682;SDS011;28293;50.930;3.464;2023-08-07T06:35:37;12.85;;;7.05;;
42682;SDS011;28293;50.930;3.464;2023-08-07T06:38:04;15.43;;;6.70;;
42682;SDS011;28293;50.930;3.464;2023-08-07T06:40:30;13.07;;;6.40;;
42682;SDS011;28293;50.930;3.464;2023-08-07T06:42:55;13.10;;;6.90;;
42682;SDS011;28293;50.930;3.464;2023-08-07T06:45:21;10.95;;;6.28;;
42682;SDS011;28293;50.930;3.464;2023-08-07T06:47:47;13.43;;;7.28;;
42682;SDS011;28293;50.930;3.464;2023-08-07T06:50:13;15.15;;;6.15;;
42682;SDS011;28293;50.930;3.464;2023-08-07T06:52:39;14.75;;;7.15;;
42682;SDS011;28293;50.930;3.464;2023-08-07T06:55:05;13.35;;;6.55;;
42682;SDS011;28293;50.930;3.464;2023-08-07T06:57:31;17.38;;;6.38;;
42682;SDS011;28293;50.930;3.464;2023-08-07T06:59:57;13.38;;;5.75;;
42682;SDS011;28293;50.930;3.464;2023-08-07T07:02:23;11.75;;;6.28;;
42682;SDS011;28293;50.930;3.464;2023-08-07T07:04:48;11.40;;;5.78;;
42682;SDS011;28293;50.930;3.464;2023-08-07T07:07:14;11.35;;;5.40;;
42682;SDS011;28293;50.930;3.464;2023-08-07T07:09:40;15.07;;;5.80;;
42682;SDS011;28293;50.930;3.464;2023-08-07T07:12:06;11.32;;;5.72;;
42682;SDS011;28293;50.930;3.464;2023-08-07T07:14:32;9.32;;;5.40;;
42682;SDS011;28293;50.930;3.464;2023-08-07T07:16:58;12.63;;;5.43;;
42682;SDS011;28293;50.930;3.464;2023-08-07T07:19:24;11.40;;;4.95;;
42682;SDS011;28293;50.930;3.464;2023-08-07T07:21:50;11.55;;;5.22;;
42682;SDS011;28293;50.930;3.464;2023-08-07T07:24:15;10.40;;;5.47;;
42682;SDS011;28293;50.930;3.464;2023-08-07T07:26:41;10.38;;;4.97;;
42682;SDS011;28293;50.930;3.464;2023-08-07T07:29:07;9.50;;;5.13;;
42682;SDS011;28293;50.930;3.464;2023-08-07T07:31:32;10.02;;;4.82;;
42682;SDS011;28293;50.930;3.464;2023-08-07T07:33:58;8.23;;;5.72;;
42682;SDS011;28293;50.930;3.464;2023-08-07T07:36:24;9.88;;;4.65;;
42682;SDS011;28293;50.930;3.464;2023-08-07T07:38:49;12.93;;;5.32;;
42682;SDS011;28293;50.930;3.464;2023-08-07T07:41:15;10.60;;;4.85;;
42682;SDS011;28293;50.930;3.464;2023-08-07T07:43:41;9.48;;;5.07;;
42682;SDS011;28293;50.930;3.464;2023-08-07T07:46:07;9.05;;;4.10;;
42682;SDS011;28293;50.930;3.464;2023-08-07T07:48:32;8.00;;;3.92;;
42682;SDS011;28293;50.930;3.464;2023-08-07T07:50:58;11.05;;;4.25;;
42682;SDS011;28293;50.930;3.464;2023-08-07T07:53:26;9.70;;;4.38;;
42682;SDS011;28293;50.930;3.464;2023-08-07T07:55:52;9.55;;;4.32;;
42682;SDS011;28293;50.930;3.464;2023-08-07T07:58:19;8.82;;;4.03;;
42682;SDS011;28293;50.930;3.464;2023-08-07T08:00:45;8.15;;;4.13;;
42682;SDS011;28293;50.930;3.464;2023-08-07T08:03:11;8.82;;;3.90;;
42682;SDS011;28293;50.930;3.464;2023-08-07T08:05:37;7.57;;;3.90;;
42682;SDS011;28293;50.930;3.464;2023-08-07T08:08:03;8.45;;;4.18;;
42682;SDS011;28293;50.930;3.464;2023-08-07T08:10:30;9.02;;;4.50;;
42682;SDS011;28293;50.930;3.464;2023-08-07T08:12:56;7.95;;;4.15;;
42682;SDS011;28293;50.930;3.464;2023-08-07T08:15:21;8.88;;;4.10;;
42682;SDS011;28293;50.930;3.464;2023-08-07T08:17:47;7.95;;;3.53;;
42682;SDS011;28293;50.930;3.464;2023-08-07T08:20:14;9.88;;;3.58;;
42682;SDS011;28293;50.930;3.464;2023-08-07T08:22:46;6.75;;;3.35;;
42682;SDS011;28293;50.930;3.464;2023-08-07T08:25:12;6.93;;;2.92;;
42682;SDS011;28293;50.930;3.464;2023-08-07T08:27:38;6.75;;;2.75;;
42682;SDS011;28293;50.930;3.464;2023-08-07T08:30:04;9.73;;;3.70;;
42682;SDS011;28293;50.930;3.464;2023-08-07T08:32:31;6.85;;;2.80;;
42682;SDS011;28293;50.930;3.464;2023-08-07T08:34:56;7.93;;;3.28;;
42682;SDS011;28293;50.930;3.464;2023-08-07T08:37:22;6.72;;;3.20;;
42682;SDS011;28293;50.930;3.464;2023-08-07T08:39:48;8.48;;;3.13;;
42682;SDS011;28293;50.930;3.464;2023-08-07T08:42:14;6.22;;;3.13;;
42682;SDS011;28293;50.930;3.464;2023-08-07T08:44:41;7.85;;;3.47;;
42682;SDS011;28293;50.930;3.464;2023-08-07T08:47:13;6.72;;;3.10;;
42682;SDS011;28293;50.930;3.464;2023-08-07T08:49:43;6.85;;;2.80;;
42682;SDS011;28293;50.930;3.464;2023-08-07T08:52:12;5.95;;;2.95;;
42682;SDS011;28293;50.930;3.464;2023-08-07T08:54:38;5.43;;;2.50;;
42682;SDS011;28293;50.930;3.464;2023-08-07T08:57:06;6.10;;;2.88;;
42682;SDS011;28293;50.930;3.464;2023-08-07T08:59:32;6.20;;;2.55;;
42682;SDS011;28293;50.930;3.464;2023-08-07T09:01:59;4.57;;;2.25;;
42682;SDS011;28293;50.930;3.464;2023-08-07T09:04:24;6.80;;;2.75;;
42682;SDS011;28293;50.930;3.464;2023-08-07T09:06:51;5.75;;;2.95;;
42682;SDS011;28293;50.930;3.464;2023-08-07T09:09:17;5.22;;;2.72;;
42682;SDS011;28293;50.930;3.464;2023-08-07T09:11:46;5.60;;;2.50;;
42682;SDS011;28293;50.930;3.464;2023-08-07T09:14:15;6.95;;;2.60;;
42682;SDS011;28293;50.930;3.464;2023-08-07T09:16:43;5.22;;;2.67;;
42682;SDS011;28293;50.930;3.464;2023-08-07T09:19:11;4.53;;;2.35;;
42682;SDS011;28293;50.930;3.464;2023-08-07T09:21:36;4.80;;;2.60;;
42682;SDS011;28293;50.930;3.464;2023-08-07T09:24:02;5.80;;;2.65;;
42682;SDS011;28293;50.930;3.464;2023-08-07T09:26:28;5.82;;;2.67;;
42682;SDS011;28293;50.930;3.464;2023-08-07T09:28:54;6.07;;;2.55;;
42682;SDS011;28293;50.930;3.464;2023-08-07T09:31:20;5.05;;;2.15;;
42682;SDS011;28293;50.930;3.464;2023-08-07T09:33:49;5.97;;;2.33;;
42682;SDS011;28293;50.930;3.464;2023-08-07T09:36:15;7.45;;;2.60;;
42682;SDS011;28293;50.930;3.464;2023-08-07T09:38:42;4.95;;;2.47;;
42682;SDS011;28293;50.930;3.464;2023-08-07T09:41:07;7.25;;;2.67;;
42682;SDS011;28293;50.930;3.464;2023-08-07T09:43:34;4.25;;;2.50;;
42682;SDS011;28293;50.930;3.464;2023-08-07T09:46:03;4.55;;;2.10;;
42682;SDS011;28293;50.930;3.464;2023-08-07T09:48:30;8.52;;;2.40;;
42682;SDS011;28293;50.930;3.464;2023-08-07T09:51:00;5.50;;;2.20;;
42682;SDS011;28293;50.930;3.464;2023-08-07T09:53:29;6.65;;;2.20;;
42682;SDS011;28293;50.930;3.464;2023-08-07T09:55:55;4.30;;;2.28;;
42682;SDS011;28293;50.930;3.464;2023-08-07T09:58:21;6.28;;;2.53;;
42682;SDS011;28293;50.930;3.464;2023-08-07T10:00:47;4.78;;;2.40;;
42682;SDS011;28293;50.930;3.464;2023-08-07T10:03:14;7.75;;;2.80;;
42682;SDS011;28293;50.930;3.464;2023-08-07T10:05:42;4.72;;;2.30;;
42682;SDS011;28293;50.930;3.464;2023-08-07T10:08:08;6.60;;;2.60;;
42682;SDS011;28293;50.930;3.464;2023-08-07T10:10:35;6.53;;;2.97;;
42682;SDS011;28293;50.930;3.464;2023-08-07T10:13:02;5.68;;;2.28;;
42682;SDS011;28293;50.930;3.464;2023-08-07T10:15:29;4.65;;;2.25;;
42682;SDS011;28293;50.930;3.464;2023-08-07T10:17:56;4.18;;;2.05;;
42682;SDS011;28293;50.930;3.464;2023-08-07T10:20:24;4.28;;;2.20;;
42682;SDS011;28293;50.930;3.464;2023-08-07T10:22:53;5.53;;;2.30;;
42682;SDS011;28293;50.930;3.464;2023-08-07T10:25:25;4.97;;;2.30;;
42682;SDS011;28293;50.930;3.464;2023-08-07T10:27:54;5.15;;;2.30;;
42682;SDS011;28293;50.930;3.464;2023-08-07T10:30:22;4.55;;;2.22;;
42682;SDS011;28293;50.930;3.464;2023-08-07T10:32:49;4.55;;;2.47;;
42682;SDS011;28293;50.930;3.464;2023-08-07T10:35:23;4.40;;;2.03;;
42682;SDS011;28293;50.930;3.464;2023-08-07T10:38:04;5.38;;;1.95;;
42682;SDS011;28293;50.930;3.464;2023-08-07T10:43:28;4.72;;;2.03;;
42682;SDS011;28293;50.930;3.464;2023-08-07T10:48:41;5.35;;;2.20;;
42682;SDS011;28293;50.930;3.464;2023-08-07T10:51:08;3.67;;;1.70;;
42682;SDS011;28293;50.930;3.464;2023-08-07T10:53:58;3.03;;;1.63;;
42682;SDS011;28293;50.930;3.464;2023-08-07T10:56:30;4.47;;;2.30;;
42682;SDS011;28293;50.930;3.464;2023-08-07T10:58:57;4.20;;;2.33;;
42682;SDS011;28293;50.930;3.464;2023-08-07T11:03:58;5.38;;;1.92;;
42682;SDS011;28293;50.930;3.464;2023-08-07T11:06:29;4.32;;;2.08;;
42682;SDS011;28293;50.930;3.464;2023-08-07T11:08:57;5.82;;;1.90;;
42682;SDS011;28293;50.930;3.464;2023-08-07T11:11:23;4.00;;;1.90;;
42682;SDS011;28293;50.930;3.464;2023-08-07T11:13:49;4.43;;;1.80;;
42682;SDS011;28293;50.930;3.464;2023-08-07T11:16:16;6.72;;;2.33;;
42682;SDS011;28293;50.930;3.464;2023-08-07T11:18:42;5.45;;;2.05;;
42682;SDS011;28293;50.930;3.464;2023-08-07T11:21:09;4.00;;;1.85;;
42682;SDS011;28293;50.930;3.464;2023-08-07T11:23:36;3.42;;;1.80;;
42682;SDS011;28293;50.930;3.464;2023-08-07T11:26:03;3.65;;;1.80;;
42682;SDS011;28293;50.930;3.464;2023-08-07T11:28:29;3.50;;;1.63;;
42682;SDS011;28293;50.930;3.464;2023-08-07T11:30:54;4.70;;;1.90;;
42682;SDS011;28293;50.930;3.464;2023-08-07T11:33:22;5.40;;;2.05;;
42682;SDS011;28293;50.930;3.464;2023-08-07T11:35:49;3.70;;;1.70;;
42682;SDS011;28293;50.930;3.464;2023-08-07T11:38:28;4.55;;;1.83;;
42682;SDS011;28293;50.930;3.464;2023-08-07T11:40:56;3.42;;;1.73;;
42682;SDS011;28293;50.930;3.464;2023-08-07T11:43:22;4.32;;;1.92;;
42682;SDS011;28293;50.930;3.464;2023-08-07T11:45:48;3.97;;;1.70;;
42682;SDS011;28293;50.930;3.464;2023-08-07T11:48:15;3.70;;;1.90;;
42682;SDS011;28293;50.930;3.464;2023-08-07T11:50:41;5.53;;;2.03;;
42682;SDS011;28293;50.930;3.464;2023-08-07T11:53:07;3.90;;;1.77;;
42682;SDS011;28293;50.930;3.464;2023-08-07T11:55:33;4.88;;;1.85;;
42682;SDS011;28293;50.930;3.464;2023-08-07T11:57:59;3.15;;;1.50;;
42682;SDS011;28293;50.930;3.464;2023-08-07T12:00:28;3.88;;;1.35;;
42682;SDS011;28293;50.930;3.464;2023-08-07T12:02:54;3.20;;;1.92;;
42682;SDS011;28293;50.930;3.464;2023-08-07T12:05:20;4.18;;;1.67;;
42682;SDS011;28293;50.930;3.464;2023-08-07T12:07:46;5.05;;;1.85;;
42682;SDS011;28293;50.930;3.464;2023-08-07T12:10:13;3.25;;;1.40;;
42682;SDS011;28293;50.930;3.464;2023-08-07T12:12:38;4.60;;;2.15;;
42682;SDS011;28293;50.930;3.464;2023-08-07T12:15:10;3.05;;;1.67;;
42682;SDS011;28293;50.930;3.464;2023-08-07T12:17:36;2.72;;;1.25;;
42682;SDS011;28293;50.930;3.464;2023-08-07T12:20:05;4.20;;;1.30;;
42682;SDS011;28293;50.930;3.464;2023-08-07T12:22:35;3.92;;;1.67;;
42682;SDS011;28293;50.930;3.464;2023-08-07T12:25:01;3.60;;;1.60;;
42682;SDS011;28293;50.930;3.464;2023-08-07T12:27:27;5.72;;;1.70;;
42682;SDS011;28293;50.930;3.464;2023-08-07T12:29:53;3.38;;;1.55;;
42682;SDS011;28293;50.930;3.464;2023-08-07T12:32:18;3.45;;;1.23;;
42682;SDS011;28293;50.930;3.464;2023-08-07T12:34:44;3.78;;;1.52;;
42682;SDS011;28293;50.930;3.464;2023-08-07T12:37:10;3.35;;;1.45;;
42682;SDS011;28293;50.930;3.464;2023-08-07T12:39:35;4.95;;;1.75;;
42682;SDS011;28293;50.930;3.464;2023-08-07T12:42:01;4.65;;;1.48;;
42682;SDS011;28293;50.930;3.464;2023-08-07T12:44:28;2.83;;;1.27;;
42682;SDS011;28293;50.930;3.464;2023-08-07T12:46:54;5.15;;;1.40;;
42682;SDS011;28293;50.930;3.464;2023-08-07T12:49:20;4.68;;;1.75;;
42682;SDS011;28293;50.930;3.464;2023-08-07T12:51:46;6.57;;;2.03;;
42682;SDS011;28293;50.930;3.464;2023-08-07T12:54:11;6.00;;;2.25;;
42682;SDS011;28293;50.930;3.464;2023-08-07T12:56:37;4.63;;;1.77;;
42682;SDS011;28293;50.930;3.464;2023-08-07T12:59:03;4.47;;;1.65;;
42682;SDS011;28293;50.930;3.464;2023-08-07T13:01:29;3.83;;;1.60;;
42682;SDS011;28293;50.930;3.464;2023-08-07T13:03:54;3.67;;;1.60;;
42682;SDS011;28293;50.930;3.464;2023-08-07T13:06:20;4.63;;;1.63;;
42682;SDS011;28293;50.930;3.464;2023-08-07T13:08:46;4.03;;;1.48;;
42682;SDS011;28293;50.930;3.464;2023-08-07T13:11:11;4.82;;;1.63;;
42682;SDS011;28293;50.930;3.464;2023-08-07T13:13:37;4.63;;;1.77;;
42682;SDS011;28293;50.930;3.464;2023-08-07T13:16:03;3.88;;;1.50;;
42682;SDS011;28293;50.930;3.464;2023-08-07T13:18:29;3.70;;;1.73;;
42682;SDS011;28293;50.930;3.464;2023-08-07T13:20:55;4.75;;;1.67;;
42682;SDS011;28293;50.930;3.464;2023-08-07T13:23:21;2.78;;;1.70;;
42682;SDS011;28293;50.930;3.464;2023-08-07T13:25:47;6.22;;;2.15;;
42682;SDS011;28293;50.930;3.464;2023-08-07T13:28:13;3.47;;;1.65;;
42682;SDS011;28293;50.930;3.464;2023-08-07T13:30:39;4.70;;;1.92;;
42682;SDS011;28293;50.930;3.464;2023-08-07T13:33:04;3.75;;;1.80;;
42682;SDS011;28293;50.930;3.464;2023-08-07T13:35:30;4.30;;;1.80;;
42682;SDS011;28293;50.930;3.464;2023-08-07T13:37:57;2.65;;;1.40;;
42682;SDS011;28293;50.930;3.464;2023-08-07T13:40:23;2.40;;;1.45;;
42682;SDS011;28293;50.930;3.464;2023-08-07T13:42:49;3.72;;;1.30;;
42682;SDS011;28293;50.930;3.464;2023-08-07T13:45:15;2.22;;;1.20;;
42682;SDS011;28293;50.930;3.464;2023-08-07T13:47:40;4.47;;;1.50;;
42682;SDS011;28293;50.930;3.464;2023-08-07T13:50:07;2.75;;;1.20;;
42682;SDS011;28293;50.930;3.464;2023-08-07T13:52:36;3.40;;;1.45;;
42682;SDS011;28293;50.930;3.464;2023-08-07T13:55:01;3.30;;;1.67;;
42682;SDS011;28293;50.930;3.464;2023-08-07T13:57:27;3.45;;;1.70;;
42682;SDS011;28293;50.930;3.464;2023-08-07T13:59:53;5.95;;;1.95;;
42682;SDS011;28293;50.930;3.464;2023-08-07T14:02:22;4.45;;;1.98;;
42682;SDS011;28293;50.930;3.464;2023-08-07T14:04:48;4.22;;;2.42;;
42682;SDS011;28293;50.930;3.464;2023-08-07T14:07:13;6.05;;;2.90;;
42682;SDS011;28293;50.930;3.464;2023-08-07T14:09:39;4.90;;;2.50;;
42682;SDS011;28293;50.930;3.464;2023-08-07T14:12:05;5.30;;;2.60;;
42682;SDS011;28293;50.930;3.464;2023-08-07T14:14:31;6.15;;;2.92;;
42682;SDS011;28293;50.930;3.464;2023-08-07T14:16:57;5.32;;;2.80;;
42682;SDS011;28293;50.930;3.464;2023-08-07T14:19:25;6.25;;;3.15;;
42682;SDS011;28293;50.930;3.464;2023-08-07T14:21:51;7.03;;;3.13;;
42682;SDS011;28293;50.930;3.464;2023-08-07T14:24:17;4.85;;;2.70;;
42682;SDS011;28293;50.930;3.464;2023-08-07T14:26:43;6.22;;;3.20;;
42682;SDS011;28293;50.930;3.464;2023-08-07T14:29:08;6.28;;;3.25;;
42682;SDS011;28293;50.930;3.464;2023-08-07T14:31:34;6.05;;;2.83;;
42682;SDS011;28293;50.930;3.464;2023-08-07T14:34:00;6.18;;;2.70;;
42682;SDS011;28293;50.930;3.464;2023-08-07T14:36:26;6.38;;;2.90;;
42682;SDS011;28293;50.930;3.464;2023-08-07T14:38:51;8.25;;;3.22;;
42682;SDS011;28293;50.930;3.464;2023-08-07T14:41:18;5.85;;;2.90;;
42682;SDS011;28293;50.930;3.464;2023-08-07T14:43:44;6.85;;;3.10;;
42682;SDS011;28293;50.930;3.464;2023-08-07T14:46:10;5.45;;;2.70;;
42682;SDS011;28293;50.930;3.464;2023-08-07T14:48:36;5.13;;;2.40;;
42682;SDS011;28293;50.930;3.464;2023-08-07T14:51:02;5.97;;;2.47;;
42682;SDS011;28293;50.930;3.464;2023-08-07T14:53:28;5.70;;;2.60;;
42682;SDS011;28293;50.930;3.464;2023-08-07T14:55:53;4.65;;;2.30;;
42682;SDS011;28293;50.930;3.464;2023-08-07T14:58:19;5.50;;;2.65;;